sensor_id;sensor_type;location;lat;lon;timestamp;P1;durP1;ratioP1;P2;durP2;ratioP2
24567;SDS011;12731;52.182;8.716;2023-09-30T00:00:55;11.98;;;4.05;;
24567;SDS011;12731;52.182;8.716;2023-09-30T00:03:21;12.00;;;4.03;;
24567;SDS011;12731;52.182;8.716;2023-09-30T00:05:48;13.48;;;4.25;;
24567;SDS011;12731;52.182;8.716;2023-09-30T00:08:14;10.43;;;4.30;;
24567;SDS011;12731;52.182;8.716;2023-09-30T00:10:41;15.73;;;4.90;;
24567;SDS011;12731;52.182;8.716;2023-09-30T00:13:08;15.15;;;4.28;;
24567;SDS011;12731;52.182;8.716;2023-09-30T00:15:34;14.70;;;5.25;;
24567;SDS011;12731;52.182;8.716;2023-09-30T00:18:01;13.45;;;4.38;;
24567;SDS011;12731;52.182;8.716;2023-09-30T00:20:28;14.98;;;4.85;;
24567;SDS011;12731;52.182;8.716;2023-09-30T00:22:54;16.00;;;4.88;;
24567;SDS011;12731;52.182;8.716;2023-09-30T00:25:21;11.35;;;4.30;;
24567;SDS011;12731;52.182;8.716;2023-09-30T00:27:47;11.60;;;4.07;;
24567;SDS011;12731;52.182;8.716;2023-09-30T00:30:14;12.65;;;4.63;;
24567;SDS011;12731;52.182;8.716;2023-09-30T00:32:41;11.45;;;3.88;;
24567;SDS011;12731;52.182;8.716;2023-09-30T00:35:07;12.57;;;4.20;;
24567;SDS011;12731;52.182;8.716;2023-09-30T00:37:38;15.63;;;4.57;;
24567;SDS011;12731;52.182;8.716;2023-09-30T00:40:05;13.30;;;4.90;;
24567;SDS011;12731;52.182;8.716;2023-09-30T00:42:32;12.27;;;3.88;;
24567;SDS011;12731;52.182;8.716;2023-09-30T00:44:59;12.13;;;4.55;;
24567;SDS011;12731;52.182;8.716;2023-09-30T00:47:25;14.35;;;4.50;;
24567;SDS011;12731;52.182;8.716;2023-09-30T00:49:52;10.75;;;4.07;;
24567;SDS011;12731;52.182;8.716;2023-09-30T00:52:20;12.15;;;4.30;;
24567;SDS011;12731;52.182;8.716;2023-09-30T00:54:46;15.15;;;4.63;;
24567;SDS011;12731;52.182;8.716;2023-09-30T00:57:13;15.05;;;4.35;;
24567;SDS011;12731;52.182;8.716;2023-09-30T00:59:40;10.98;;;4.22;;
24567;SDS011;12731;52.182;8.716;2023-09-30T01:02:07;16.80;;;4.93;;
24567;SDS011;12731;52.182;8.716;2023-09-30T01:04:33;14.38;;;4.32;;
24567;SDS011;12731;52.182;8.716;2023-09-30T01:07:00;17.05;;;5.20;;
24567;SDS011;12731;52.182;8.716;2023-09-30T01:09:27;15.30;;;4.57;;
24567;SDS011;12731;52.182;8.716;2023-09-30T01:11:54;12.50;;;4.80;;
24567;SDS011;12731;52.182;8.716;2023-09-30T01:14:38;12.25;;;4.30;;
24567;SDS011;12731;52.182;8.716;2023-09-30T01:17:06;13.73;;;4.30;;
24567;SDS011;12731;52.182;8.716;2023-09-30T01:19:42;13.82;;;4.30;;
24567;SDS011;12731;52.182;8.716;2023-09-30T01:22:09;14.23;;;4.80;;
24567;SDS011;12731;52.182;8.716;2023-09-30T01:24:39;14.68;;;4.53;;
24567;SDS011;12731;52.182;8.716;2023-09-30T01:27:07;14.90;;;5.15;;
24567;SDS011;12731;52.182;8.716;2023-09-30T01:29:33;14.57;;;4.57;;
24567;SDS011;12731;52.182;8.716;2023-09-30T01:32:01;13.48;;;4.70;;
24567;SDS011;12731;52.182;8.716;2023-09-30T01:34:27;12.57;;;4.10;;
24567;SDS011;12731;52.182;8.716;2023-09-30T01:36:54;17.55;;;4.43;;
24567;SDS011;12731;52.182;8.716;2023-09-30T01:39:20;12.45;;;5.03;;
24567;SDS011;12731;52.182;8.716;2023-09-30T01:41:47;11.13;;;3.92;;
24567;SDS011;12731;52.182;8.716;2023-09-30T01:44:13;13.63;;;4.80;;
24567;SDS011;12731;52.182;8.716;2023-09-30T01:46:40;13.18;;;4.18;;
24567;SDS011;12731;52.182;8.716;2023-09-30T01:49:07;13.60;;;4.38;;
24567;SDS011;12731;52.182;8.716;2023-09-30T01:51:33;18.17;;;4.38;;
24567;SDS011;12731;52.182;8.716;2023-09-30T01:54:00;12.32;;;4.05;;
24567;SDS011;12731;52.182;8.716;2023-09-30T01:56:26;12.23;;;4.07;;
24567;SDS011;12731;52.182;8.716;2023-09-30T01:58:53;15.50;;;4.43;;
24567;SDS011;12731;52.182;8.716;2023-09-30T02:01:21;14.45;;;4.32;;
24567;SDS011;12731;52.182;8.716;2023-09-30T02:03:47;15.55;;;4.15;;
24567;SDS011;12731;52.182;8.716;2023-09-30T02:06:14;12.50;;;4.00;;
24567;SDS011;12731;52.182;8.716;2023-09-30T02:08:43;13.05;;;4.45;;
24567;SDS011;12731;52.182;8.716;2023-09-30T02:11:10;12.00;;;3.85;;
24567;SDS011;12731;52.182;8.716;2023-09-30T02:13:38;14.32;;;4.07;;
24567;SDS011;12731;52.182;8.716;2023-09-30T02:16:05;13.38;;;4.25;;
24567;SDS011;12731;52.182;8.716;2023-09-30T02:18:31;12.63;;;4.53;;
24567;SDS011;12731;52.182;8.716;2023-09-30T02:20:58;17.00;;;4.90;;
24567;SDS011;12731;52.182;8.716;2023-09-30T02:23:25;16.63;;;4.95;;
24567;SDS011;12731;52.182;8.716;2023-09-30T02:25:52;15.57;;;4.63;;
24567;SDS011;12731;52.182;8.716;2023-09-30T02:28:18;16.02;;;4.65;;
24567;SDS011;12731;52.182;8.716;2023-09-30T02:30:45;11.35;;;3.88;;
24567;SDS011;12731;52.182;8.716;2023-09-30T02:33:11;12.20;;;3.75;;
24567;SDS011;12731;52.182;8.716;2023-09-30T02:35:38;18.67;;;4.93;;
24567;SDS011;12731;52.182;8.716;2023-09-30T02:38:09;12.95;;;4.30;;
24567;SDS011;12731;52.182;8.716;2023-09-30T02:40:37;13.75;;;4.35;;
24567;SDS011;12731;52.182;8.716;2023-09-30T02:43:04;13.52;;;4.30;;
24567;SDS011;12731;52.182;8.716;2023-09-30T02:45:31;13.95;;;4.57;;
24567;SDS011;12731;52.182;8.716;2023-09-30T02:47:57;14.52;;;4.35;;
24567;SDS011;12731;52.182;8.716;2023-09-30T02:50:24;12.60;;;4.65;;
24567;SDS011;12731;52.182;8.716;2023-09-30T02:52:51;12.35;;;4.35;;
24567;SDS011;12731;52.182;8.716;2023-09-30T02:55:18;14.73;;;4.35;;
24567;SDS011;12731;52.182;8.716;2023-09-30T02:57:44;13.40;;;4.25;;
24567;SDS011;12731;52.182;8.716;2023-09-30T03:00:13;12.75;;;3.78;;
24567;SDS011;12731;52.182;8.716;2023-09-30T03:03:00;11.45;;;3.95;;
24567;SDS011;12731;52.182;8.716;2023-09-30T03:05:28;11.18;;;3.90;;
24567;SDS011;12731;52.182;8.716;2023-09-30T03:07:56;13.05;;;4.22;;
24567;SDS011;12731;52.182;8.716;2023-09-30T03:10:23;14.57;;;4.25;;
24567;SDS011;12731;52.182;8.716;2023-09-30T03:12:53;12.05;;;4.15;;
24567;SDS011;12731;52.182;8.716;2023-09-30T03:15:20;12.15;;;4.60;;
24567;SDS011;12731;52.182;8.716;2023-09-30T03:17:47;11.20;;;4.07;;
24567;SDS011;12731;52.182;8.716;2023-09-30T03:20:18;16.67;;;4.07;;
24567;SDS011;12731;52.182;8.716;2023-09-30T03:22:47;12.05;;;3.63;;
24567;SDS011;12731;52.182;8.716;2023-09-30T03:25:15;15.82;;;3.92;;
24567;SDS011;12731;52.182;8.716;2023-09-30T03:27:44;12.98;;;3.75;;
24567;SDS011;12731;52.182;8.716;2023-09-30T03:30:13;14.02;;;4.15;;
24567;SDS011;12731;52.182;8.716;2023-09-30T03:32:40;11.05;;;3.72;;
24567;SDS011;12731;52.182;8.716;2023-09-30T03:35:08;8.63;;;4.03;;
24567;SDS011;12731;52.182;8.716;2023-09-30T03:37:37;9.90;;;3.83;;
24567;SDS011;12731;52.182;8.716;2023-09-30T03:40:04;12.32;;;4.00;;
24567;SDS011;12731;52.182;8.716;2023-09-30T03:42:39;12.80;;;4.07;;
24567;SDS011;12731;52.182;8.716;2023-09-30T03:45:11;15.27;;;4.43;;
24567;SDS011;12731;52.182;8.716;2023-09-30T03:47:41;10.82;;;3.50;;
24567;SDS011;12731;52.182;8.716;2023-09-30T03:50:08;11.75;;;3.63;;
24567;SDS011;12731;52.182;8.716;2023-09-30T03:52:42;15.35;;;4.45;;
24567;SDS011;12731;52.182;8.716;2023-09-30T04:00:14;10.98;;;3.60;;
24567;SDS011;12731;52.182;8.716;2023-09-30T04:02:45;11.40;;;3.75;;
24567;SDS011;12731;52.182;8.716;2023-09-30T04:05:16;16.08;;;4.80;;
24567;SDS011;12731;52.182;8.716;2023-09-30T04:07:43;13.55;;;3.85;;
24567;SDS011;12731;52.182;8.716;2023-09-30T04:10:09;14.63;;;4.57;;
24567;SDS011;12731;52.182;8.716;2023-09-30T04:12:36;10.60;;;3.50;;
24567;SDS011;12731;52.182;8.716;2023-09-30T04:15:03;17.00;;;4.60;;
24567;SDS011;12731;52.182;8.716;2023-09-30T04:17:30;12.52;;;4.15;;
24567;SDS011;12731;52.182;8.716;2023-09-30T04:19:57;15.07;;;4.32;;
24567;SDS011;12731;52.182;8.716;2023-09-30T04:22:24;10.95;;;4.00;;
24567;SDS011;12731;52.182;8.716;2023-09-30T04:24:52;13.13;;;3.95;;
24567;SDS011;12731;52.182;8.716;2023-09-30T04:27:19;12.57;;;4.18;;
24567;SDS011;12731;52.182;8.716;2023-09-30T04:29:46;9.93;;;4.10;;
24567;SDS011;12731;52.182;8.716;2023-09-30T04:32:13;11.55;;;3.85;;
24567;SDS011;12731;52.182;8.716;2023-09-30T04:34:40;13.52;;;4.40;;
24567;SDS011;12731;52.182;8.716;2023-09-30T04:37:09;13.93;;;4.72;;
24567;SDS011;12731;52.182;8.716;2023-09-30T04:39:35;17.13;;;4.18;;
24567;SDS011;12731;52.182;8.716;2023-09-30T04:42:02;9.40;;;4.18;;
24567;SDS011;12731;52.182;8.716;2023-09-30T04:44:30;12.00;;;4.25;;
24567;SDS011;12731;52.182;8.716;2023-09-30T04:46:57;12.10;;;4.00;;
24567;SDS011;12731;52.182;8.716;2023-09-30T04:49:24;13.70;;;4.47;;
24567;SDS011;12731;52.182;8.716;2023-09-30T04:51:50;13.45;;;4.25;;
24567;SDS011;12731;52.182;8.716;2023-09-30T04:54:17;16.25;;;3.95;;
24567;SDS011;12731;52.182;8.716;2023-09-30T04:56:43;12.98;;;3.80;;
24567;SDS011;12731;52.182;8.716;2023-09-30T04:59:10;12.73;;;3.88;;
24567;SDS011;12731;52.182;8.716;2023-09-30T05:01:36;11.77;;;4.38;;
24567;SDS011;12731;52.182;8.716;2023-09-30T05:04:03;13.23;;;4.15;;
24567;SDS011;12731;52.182;8.716;2023-09-30T05:06:30;13.07;;;4.07;;
24567;SDS011;12731;52.182;8.716;2023-09-30T05:08:58;12.38;;;4.13;;
24567;SDS011;12731;52.182;8.716;2023-09-30T05:11:26;16.17;;;4.30;;
24567;SDS011;12731;52.182;8.716;2023-09-30T05:13:52;13.23;;;4.10;;
24567;SDS011;12731;52.182;8.716;2023-09-30T05:16:19;11.20;;;4.22;;
24567;SDS011;12731;52.182;8.716;2023-09-30T05:18:45;10.30;;;3.63;;
24567;SDS011;12731;52.182;8.716;2023-09-30T05:21:14;9.15;;;3.97;;
24567;SDS011;12731;52.182;8.716;2023-09-30T05:23:42;12.32;;;4.80;;
24567;SDS011;12731;52.182;8.716;2023-09-30T05:26:08;15.35;;;4.93;;
24567;SDS011;12731;52.182;8.716;2023-09-30T05:28:35;14.80;;;4.63;;
24567;SDS011;12731;52.182;8.716;2023-09-30T05:31:01;13.25;;;4.78;;
24567;SDS011;12731;52.182;8.716;2023-09-30T05:33:28;14.63;;;5.50;;
24567;SDS011;12731;52.182;8.716;2023-09-30T05:35:55;16.52;;;5.15;;
24567;SDS011;12731;52.182;8.716;2023-09-30T05:38:22;20.02;;;4.93;;
24567;SDS011;12731;52.182;8.716;2023-09-30T05:40:49;14.57;;;4.80;;
24567;SDS011;12731;52.182;8.716;2023-09-30T05:43:16;13.27;;;4.22;;
24567;SDS011;12731;52.182;8.716;2023-09-30T05:45:42;13.45;;;4.78;;
24567;SDS011;12731;52.182;8.716;2023-09-30T05:48:15;10.40;;;4.28;;
24567;SDS011;12731;52.182;8.716;2023-09-30T05:50:42;13.82;;;4.78;;
24567;SDS011;12731;52.182;8.716;2023-09-30T05:53:09;12.90;;;4.75;;
24567;SDS011;12731;52.182;8.716;2023-09-30T05:55:40;11.65;;;4.07;;
24567;SDS011;12731;52.182;8.716;2023-09-30T05:58:09;17.50;;;4.80;;
24567;SDS011;12731;52.182;8.716;2023-09-30T06:00:36;11.30;;;4.68;;
24567;SDS011;12731;52.182;8.716;2023-09-30T06:03:02;14.73;;;4.47;;
24567;SDS011;12731;52.182;8.716;2023-09-30T06:05:32;13.88;;;5.18;;
24567;SDS011;12731;52.182;8.716;2023-09-30T06:08:00;13.05;;;4.25;;
24567;SDS011;12731;52.182;8.716;2023-09-30T06:10:29;16.10;;;5.15;;
24567;SDS011;12731;52.182;8.716;2023-09-30T06:12:56;12.68;;;4.38;;
24567;SDS011;12731;52.182;8.716;2023-09-30T06:15:24;15.35;;;4.38;;
24567;SDS011;12731;52.182;8.716;2023-09-30T06:17:55;13.38;;;5.10;;
24567;SDS011;12731;52.182;8.716;2023-09-30T06:20:22;13.23;;;4.30;;
24567;SDS011;12731;52.182;8.716;2023-09-30T06:22:52;12.90;;;4.80;;
24567;SDS011;12731;52.182;8.716;2023-09-30T06:25:21;13.32;;;4.60;;
24567;SDS011;12731;52.182;8.716;2023-09-30T06:27:50;12.32;;;4.38;;
24567;SDS011;12731;52.182;8.716;2023-09-30T06:30:18;15.95;;;4.60;;
24567;SDS011;12731;52.182;8.716;2023-09-30T06:32:48;13.73;;;4.65;;
24567;SDS011;12731;52.182;8.716;2023-09-30T06:35:15;11.82;;;4.75;;
24567;SDS011;12731;52.182;8.716;2023-09-30T06:37:42;12.27;;;4.65;;
24567;SDS011;12731;52.182;8.716;2023-09-30T06:40:11;12.45;;;4.78;;
24567;SDS011;12731;52.182;8.716;2023-09-30T06:42:39;13.85;;;4.80;;
24567;SDS011;12731;52.182;8.716;2023-09-30T06:45:09;13.18;;;5.40;;
24567;SDS011;12731;52.182;8.716;2023-09-30T06:47:36;18.42;;;5.68;;
24567;SDS011;12731;52.182;8.716;2023-09-30T06:50:04;13.43;;;5.18;;
24567;SDS011;12731;52.182;8.716;2023-09-30T06:52:38;9.77;;;5.05;;
24567;SDS011;12731;52.182;8.716;2023-09-30T06:55:06;14.20;;;5.13;;
24567;SDS011;12731;52.182;8.716;2023-09-30T06:57:33;14.05;;;5.80;;
24567;SDS011;12731;52.182;8.716;2023-09-30T07:00:01;16.30;;;5.72;;
24567;SDS011;12731;52.182;8.716;2023-09-30T07:02:38;13.77;;;5.22;;
24567;SDS011;12731;52.182;8.716;2023-09-30T07:05:08;16.13;;;5.43;;
24567;SDS011;12731;52.182;8.716;2023-09-30T07:07:39;16.90;;;6.35;;
24567;SDS011;12731;52.182;8.716;2023-09-30T07:10:06;16.67;;;6.25;;
24567;SDS011;12731;52.182;8.716;2023-09-30T07:12:33;12.40;;;5.43;;
24567;SDS011;12731;52.182;8.716;2023-09-30T07:15:02;15.60;;;6.20;;
24567;SDS011;12731;52.182;8.716;2023-09-30T07:17:30;15.77;;;5.97;;
24567;SDS011;12731;52.182;8.716;2023-09-30T07:19:57;19.60;;;5.90;;
24567;SDS011;12731;52.182;8.716;2023-09-30T07:22:24;18.05;;;6.10;;
24567;SDS011;12731;52.182;8.716;2023-09-30T07:25:09;17.15;;;5.97;;
24567;SDS011;12731;52.182;8.716;2023-09-30T07:27:36;15.60;;;5.80;;
24567;SDS011;12731;52.182;8.716;2023-09-30T07:30:03;16.38;;;6.45;;
24567;SDS011;12731;52.182;8.716;2023-09-30T07:32:32;16.83;;;6.53;;
24567;SDS011;12731;52.182;8.716;2023-09-30T07:34:59;15.93;;;6.18;;
24567;SDS011;12731;52.182;8.716;2023-09-30T07:37:25;16.48;;;5.80;;
24567;SDS011;12731;52.182;8.716;2023-09-30T07:39:52;15.55;;;6.60;;
24567;SDS011;12731;52.182;8.716;2023-09-30T07:42:18;15.77;;;6.32;;
24567;SDS011;12731;52.182;8.716;2023-09-30T07:44:45;11.20;;;5.75;;
24567;SDS011;12731;52.182;8.716;2023-09-30T07:47:11;17.45;;;6.95;;
24567;SDS011;12731;52.182;8.716;2023-09-30T07:49:38;18.50;;;6.57;;
24567;SDS011;12731;52.182;8.716;2023-09-30T07:52:05;16.13;;;6.35;;
24567;SDS011;12731;52.182;8.716;2023-09-30T07:54:31;19.70;;;6.72;;
24567;SDS011;12731;52.182;8.716;2023-09-30T07:56:58;16.58;;;7.03;;
24567;SDS011;12731;52.182;8.716;2023-09-30T07:59:26;21.67;;;6.57;;
24567;SDS011;12731;52.182;8.716;2023-09-30T08:01:53;20.27;;;6.82;;
24567;SDS011;12731;52.182;8.716;2023-09-30T08:04:19;18.10;;;6.97;;
24567;SDS011;12731;52.182;8.716;2023-09-30T08:06:46;14.45;;;6.32;;
24567;SDS011;12731;52.182;8.716;2023-09-30T08:09:13;15.52;;;6.10;;
24567;SDS011;12731;52.182;8.716;2023-09-30T08:11:40;13.68;;;6.38;;
24567;SDS011;12731;52.182;8.716;2023-09-30T08:14:06;13.45;;;6.05;;
24567;SDS011;12731;52.182;8.716;2023-09-30T08:16:35;15.80;;;6.15;;
24567;SDS011;12731;52.182;8.716;2023-09-30T08:19:03;15.35;;;7.00;;
24567;SDS011;12731;52.182;8.716;2023-09-30T08:21:30;17.17;;;6.90;;
24567;SDS011;12731;52.182;8.716;2023-09-30T08:23:57;17.30;;;6.43;;
24567;SDS011;12731;52.182;8.716;2023-09-30T08:26:23;17.23;;;6.30;;
24567;SDS011;12731;52.182;8.716;2023-09-30T08:28:50;15.25;;;6.25;;
24567;SDS011;12731;52.182;8.716;2023-09-30T08:31:16;15.23;;;6.47;;
24567;SDS011;12731;52.182;8.716;2023-09-30T08:33:43;15.68;;;6.28;;
24567;SDS011;12731;52.182;8.716;2023-09-30T08:36:11;13.35;;;6.03;;
24567;SDS011;12731;52.182;8.716;2023-09-30T08:38:39;12.80;;;6.43;;
24567;SDS011;12731;52.182;8.716;2023-09-30T08:41:06;12.98;;;5.82;;
24567;SDS011;12731;52.182;8.716;2023-09-30T08:43:37;14.18;;;6.72;;
24567;SDS011;12731;52.182;8.716;2023-09-30T08:46:05;16.52;;;7.30;;
24567;SDS011;12731;52.182;8.716;2023-09-30T08:48:33;14.55;;;6.50;;
24567;SDS011;12731;52.182;8.716;2023-09-30T08:51:01;12.75;;;6.50;;
24567;SDS011;12731;52.182;8.716;2023-09-30T08:53:31;10.52;;;6.30;;
24567;SDS011;12731;52.182;8.716;2023-09-30T08:55:58;9.30;;;5.40;;
24567;SDS011;12731;52.182;8.716;2023-09-30T08:58:27;16.23;;;6.60;;
24567;SDS011;12731;52.182;8.716;2023-09-30T09:00:54;15.27;;;6.20;;
24567;SDS011;12731;52.182;8.716;2023-09-30T09:03:22;11.23;;;5.85;;
24567;SDS011;12731;52.182;8.716;2023-09-30T09:05:53;15.20;;;6.00;;
24567;SDS011;12731;52.182;8.716;2023-09-30T09:08:24;13.85;;;6.63;;
24567;SDS011;12731;52.182;8.716;2023-09-30T09:10:58;12.10;;;5.38;;
24567;SDS011;12731;52.182;8.716;2023-09-30T09:13:27;10.45;;;5.40;;
24567;SDS011;12731;52.182;8.716;2023-09-30T09:16:08;11.52;;;6.00;;
24567;SDS011;12731;52.182;8.716;2023-09-30T09:18:36;9.70;;;5.13;;
24567;SDS011;12731;52.182;8.716;2023-09-30T09:21:10;12.70;;;5.43;;
24567;SDS011;12731;52.182;8.716;2023-09-30T09:23:41;9.10;;;5.18;;
24567;SDS011;12731;52.182;8.716;2023-09-30T09:26:11;11.15;;;5.22;;
24567;SDS011;12731;52.182;8.716;2023-09-30T09:28:42;10.70;;;5.07;;
24567;SDS011;12731;52.182;8.716;2023-09-30T09:31:25;11.55;;;6.00;;
24567;SDS011;12731;52.182;8.716;2023-09-30T09:34:02;13.07;;;5.45;;
24567;SDS011;12731;52.182;8.716;2023-09-30T09:36:45;10.25;;;5.10;;
24567;SDS011;12731;52.182;8.716;2023-09-30T09:39:14;14.48;;;6.13;;
24567;SDS011;12731;52.182;8.716;2023-09-30T09:41:52;13.70;;;5.78;;
24567;SDS011;12731;52.182;8.716;2023-09-30T09:44:19;10.90;;;6.20;;
24567;SDS011;12731;52.182;8.716;2023-09-30T09:46:48;11.45;;;5.95;;
24567;SDS011;12731;52.182;8.716;2023-09-30T09:49:17;11.15;;;5.53;;
24567;SDS011;12731;52.182;8.716;2023-09-30T09:51:44;12.52;;;5.85;;
24567;SDS011;12731;52.182;8.716;2023-09-30T09:54:12;11.57;;;6.10;;
24567;SDS011;12731;52.182;8.716;2023-09-30T09:56:39;12.65;;;6.03;;
24567;SDS011;12731;52.182;8.716;2023-09-30T09:59:05;9.35;;;5.30;;
24567;SDS011;12731;52.182;8.716;2023-09-30T10:01:35;12.85;;;5.40;;
24567;SDS011;12731;52.182;8.716;2023-09-30T10:04:02;12.63;;;5.18;;
24567;SDS011;12731;52.182;8.716;2023-09-30T10:06:28;11.15;;;5.63;;
24567;SDS011;12731;52.182;8.716;2023-09-30T10:08:55;10.65;;;4.80;;
24567;SDS011;12731;52.182;8.716;2023-09-30T10:11:24;9.88;;;4.50;;
24567;SDS011;12731;52.182;8.716;2023-09-30T10:13:54;9.07;;;4.60;;
24567;SDS011;12731;52.182;8.716;2023-09-30T10:19:22;11.85;;;4.65;;
24567;SDS011;12731;52.182;8.716;2023-09-30T10:24:51;10.75;;;4.63;;
24567;SDS011;12731;52.182;8.716;2023-09-30T10:29:59;8.82;;;4.55;;
24567;SDS011;12731;52.182;8.716;2023-09-30T10:33:07;9.13;;;5.05;;
24567;SDS011;12731;52.182;8.716;2023-09-30T10:40:51;10.15;;;4.28;;
24567;SDS011;12731;52.182;8.716;2023-09-30T10:43:34;11.43;;;4.35;;
24567;SDS011;12731;52.182;8.716;2023-09-30T10:46:04;9.38;;;4.18;;
24567;SDS011;12731;52.182;8.716;2023-09-30T10:48:54;11.70;;;3.95;;
24567;SDS011;12731;52.182;8.716;2023-09-30T10:51:22;9.45;;;3.67;;
24567;SDS011;12731;52.182;8.716;2023-09-30T10:53:52;11.95;;;3.95;;
24567;SDS011;12731;52.182;8.716;2023-09-30T10:56:23;7.72;;;3.38;;
24567;SDS011;12731;52.182;8.716;2023-09-30T10:58:50;10.85;;;3.42;;
24567;SDS011;12731;52.182;8.716;2023-09-30T11:01:21;8.90;;;3.40;;
24567;SDS011;12731;52.182;8.716;2023-09-30T11:03:49;11.03;;;3.53;;
24567;SDS011;12731;52.182;8.716;2023-09-30T11:06:20;7.75;;;2.95;;
24567;SDS011;12731;52.182;8.716;2023-09-30T11:08:55;8.40;;;3.00;;
24567;SDS011;12731;52.182;8.716;2023-09-30T11:11:33;7.82;;;3.00;;
24567;SDS011;12731;52.182;8.716;2023-09-30T11:14:00;8.50;;;3.47;;
24567;SDS011;12731;52.182;8.716;2023-09-30T11:16:27;7.88;;;3.15;;
24567;SDS011;12731;52.182;8.716;2023-09-30T11:18:54;8.02;;;3.13;;
24567;SDS011;12731;52.182;8.716;2023-09-30T11:21:22;11.40;;;3.70;;
24567;SDS011;12731;52.182;8.716;2023-09-30T11:23:48;7.50;;;3.25;;
24567;SDS011;12731;52.182;8.716;2023-09-30T11:26:15;5.90;;;2.97;;
24567;SDS011;12731;52.182;8.716;2023-09-30T11:28:42;8.10;;;3.05;;
24567;SDS011;12731;52.182;8.716;2023-09-30T11:31:11;7.53;;;2.72;;
24567;SDS011;12731;52.182;8.716;2023-09-30T11:33:47;6.47;;;2.50;;
24567;SDS011;12731;52.182;8.716;2023-09-30T11:36:22;5.90;;;2.70;;
24567;SDS011;12731;52.182;8.716;2023-09-30T11:38:50;7.45;;;2.75;;
24567;SDS011;12731;52.182;8.716;2023-09-30T11:41:19;6.70;;;2.70;;
24567;SDS011;12731;52.182;8.716;2023-09-30T11:44:02;6.95;;;2.80;;
24567;SDS011;12731;52.182;8.716;2023-09-30T11:51:54;6.32;;;2.92;;
24567;SDS011;12731;52.182;8.716;2023-09-30T11:54:22;7.30;;;3.20;;
24567;SDS011;12731;52.182;8.716;2023-09-30T11:56:54;8.73;;;3.05;;
24567;SDS011;12731;52.182;8.716;2023-09-30T11:59:21;8.63;;;2.78;;
24567;SDS011;12731;52.182;8.716;2023-09-30T12:01:48;6.65;;;2.75;;
24567;SDS011;12731;52.182;8.716;2023-09-30T12:04:37;8.77;;;3.35;;
24567;SDS011;12731;52.182;8.716;2023-09-30T12:07:05;8.52;;;3.45;;
24567;SDS011;12731;52.182;8.716;2023-09-30T12:09:33;6.57;;;2.75;;
24567;SDS011;12731;52.182;8.716;2023-09-30T12:12:01;5.93;;;2.40;;
24567;SDS011;12731;52.182;8.716;2023-09-30T12:14:28;7.10;;;2.97;;
24567;SDS011;12731;52.182;8.716;2023-09-30T12:16:58;9.85;;;3.10;;
24567;SDS011;12731;52.182;8.716;2023-09-30T12:19:25;4.95;;;2.50;;
24567;SDS011;12731;52.182;8.716;2023-09-30T12:21:53;7.53;;;2.80;;
24567;SDS011;12731;52.182;8.716;2023-09-30T12:24:19;6.32;;;2.58;;
24567;SDS011;12731;52.182;8.716;2023-09-30T12:26:48;4.68;;;2.30;;
24567;SDS011;12731;52.182;8.716;2023-09-30T12:29:15;7.75;;;2.50;;
24567;SDS011;12731;52.182;8.716;2023-09-30T12:31:45;5.63;;;2.33;;
24567;SDS011;12731;52.182;8.716;2023-09-30T12:34:15;7.63;;;2.53;;
24567;SDS011;12731;52.182;8.716;2023-09-30T12:36:42;6.25;;;2.55;;
24567;SDS011;12731;52.182;8.716;2023-09-30T12:39:10;6.63;;;2.47;;
24567;SDS011;12731;52.182;8.716;2023-09-30T12:41:38;6.25;;;2.20;;
24567;SDS011;12731;52.182;8.716;2023-09-30T12:44:07;5.80;;;2.22;;
24567;SDS011;12731;52.182;8.716;2023-09-30T12:46:34;4.13;;;2.20;;
24567;SDS011;12731;52.182;8.716;2023-09-30T12:49:03;6.35;;;2.55;;
24567;SDS011;12731;52.182;8.716;2023-09-30T12:51:30;6.22;;;2.22;;
24567;SDS011;12731;52.182;8.716;2023-09-30T12:53:57;7.25;;;2.60;;
24567;SDS011;12731;52.182;8.716;2023-09-30T12:56:25;4.97;;;2.30;;
24567;SDS011;12731;52.182;8.716;2023-09-30T12:58:51;5.63;;;2.30;;
24567;SDS011;12731;52.182;8.716;2023-09-30T13:01:18;5.10;;;2.22;;
24567;SDS011;12731;52.182;8.716;2023-09-30T13:03:48;6.18;;;2.40;;
24567;SDS011;12731;52.182;8.716;2023-09-30T13:06:15;8.38;;;2.55;;
24567;SDS011;12731;52.182;8.716;2023-09-30T13:08:43;5.50;;;2.45;;
24567;SDS011;12731;52.182;8.716;2023-09-30T13:11:09;7.50;;;2.72;;
24567;SDS011;12731;52.182;8.716;2023-09-30T13:13:37;6.35;;;2.50;;
24567;SDS011;12731;52.182;8.716;2023-09-30T13:16:04;5.47;;;2.30;;
24567;SDS011;12731;52.182;8.716;2023-09-30T13:18:36;7.18;;;2.70;;
24567;SDS011;12731;52.182;8.716;2023-09-30T13:21:03;5.78;;;2.67;;
24567;SDS011;12731;52.182;8.716;2023-09-30T13:23:32;5.57;;;2.47;;
24567;SDS011;12731;52.182;8.716;2023-09-30T13:25:59;7.43;;;2.40;;
24567;SDS011;12731;52.182;8.716;2023-09-30T13:28:26;5.35;;;2.28;;
24567;SDS011;12731;52.182;8.716;2023-09-30T13:30:54;8.05;;;2.78;;
24567;SDS011;12731;52.182;8.716;2023-09-30T13:33:21;4.35;;;2.28;;
24567;SDS011;12731;52.182;8.716;2023-09-30T13:35:47;5.15;;;2.70;;
24567;SDS011;12731;52.182;8.716;2023-09-30T13:38:14;5.38;;;2.40;;
24567;SDS011;12731;52.182;8.716;2023-09-30T13:40:42;4.93;;;2.22;;
24567;SDS011;12731;52.182;8.716;2023-09-30T13:43:09;5.43;;;2.38;;
24567;SDS011;12731;52.182;8.716;2023-09-30T13:45:37;6.95;;;2.90;;
24567;SDS011;12731;52.182;8.716;2023-09-30T13:48:04;7.55;;;2.70;;
24567;SDS011;12731;52.182;8.716;2023-09-30T13:50:31;4.90;;;2.53;;
24567;SDS011;12731;52.182;8.716;2023-09-30T13:52:57;5.10;;;2.55;;
24567;SDS011;12731;52.182;8.716;2023-09-30T13:55:27;4.93;;;2.70;;
24567;SDS011;12731;52.182;8.716;2023-09-30T13:57:53;7.75;;;2.70;;
24567;SDS011;12731;52.182;8.716;2023-09-30T14:00:20;5.38;;;2.60;;
24567;SDS011;12731;52.182;8.716;2023-09-30T14:02:47;10.15;;;2.85;;
24567;SDS011;12731;52.182;8.716;2023-09-30T14:05:15;6.45;;;2.90;;
24567;SDS011;12731;52.182;8.716;2023-09-30T14:07:41;6.35;;;3.05;;
24567;SDS011;12731;52.182;8.716;2023-09-30T14:10:09;7.68;;;3.13;;
24567;SDS011;12731;52.182;8.716;2023-09-30T14:12:37;6.95;;;2.67;;
24567;SDS011;12731;52.182;8.716;2023-09-30T14:15:05;8.98;;;3.03;;
24567;SDS011;12731;52.182;8.716;2023-09-30T14:17:32;6.68;;;2.67;;
24567;SDS011;12731;52.182;8.716;2023-09-30T14:20:01;6.20;;;2.65;;
24567;SDS011;12731;52.182;8.716;2023-09-30T14:22:28;7.38;;;2.60;;
24567;SDS011;12731;52.182;8.716;2023-09-30T14:24:55;5.72;;;2.70;;
24567;SDS011;12731;52.182;8.716;2023-09-30T14:27:21;5.57;;;2.17;;
24567;SDS011;12731;52.182;8.716;2023-09-30T14:29:48;5.95;;;2.20;;
24567;SDS011;12731;52.182;8.716;2023-09-30T14:32:14;5.80;;;2.35;;
24567;SDS011;12731;52.182;8.716;2023-09-30T14:34:41;6.13;;;2.83;;
24567;SDS011;12731;52.182;8.716;2023-09-30T14:37:07;6.35;;;2.40;;
24567;SDS011;12731;52.182;8.716;2023-09-30T14:39:34;5.18;;;2.47;;
24567;SDS011;12731;52.182;8.716;2023-09-30T14:42:01;8.02;;;2.67;;
24567;SDS011;12731;52.182;8.716;2023-09-30T14:44:27;6.55;;;2.65;;
24567;SDS011;12731;52.182;8.716;2023-09-30T14:46:54;7.35;;;2.80;;
24567;SDS011;12731;52.182;8.716;2023-09-30T14:49:22;6.97;;;2.80;;
24567;SDS011;12731;52.182;8.716;2023-09-30T14:51:48;10.43;;;3.10;;
24567;SDS011;12731;52.182;8.716;2023-09-30T14:54:15;6.85;;;2.83;;
24567;SDS011;12731;52.182;8.716;2023-09-30T14:56:42;5.80;;;2.50;;
24567;SDS011;12731;52.182;8.716;2023-09-30T14:59:08;6.70;;;2.70;;
24567;SDS011;12731;52.182;8.716;2023-09-30T15:01:35;5.03;;;2.30;;
24567;SDS011;12731;52.182;8.716;2023-09-30T15:04:02;6.20;;;2.85;;
24567;SDS011;12731;52.182;8.716;2023-09-30T15:06:28;8.40;;;3.17;;
24567;SDS011;12731;52.182;8.716;2023-09-30T15:08:55;8.88;;;2.90;;